Time;durP1;ratioP1;P1;durP2;ratioP2;P2;SDS_P1;SDS_P2;PMS_P1;PMS_P2;Temp;Humidity;BMP_temperature;BMP_pressure;BME280_temperature;BME280_humidity;BME280_pressure;Samples;Min_cycle;Max_cycle;Signal;HPM_P1;HPM_P2
2024/01/23 00:02:09;;;;;;;3.87;1.73;;;;;;;6.54;100.00;96032.31;7402561;19;20389;-91
2024/01/23 00:04:36;;;;;;;7.33;3.00;;;;;;;7.23;100.00;96124.09;7402036;19;20388;-91
2024/01/23 00:07:04;;;;;;;5.77;2.53;;;;;;;6.33;100.00;95978.84;7401696;19;20388;-91
2024/01/23 00:09:31;;;;;;;7.57;2.50;;;;;;;6.36;100.00;95983.50;7403829;19;20876;-91
2024/01/23 00:12:01;;;;;;;2.93;1.70;;;;;;;6.58;100.00;96010.63;7401209;19;20413;-92
2024/01/23 00:14:28;;;;;;;6.00;2.60;;;;;;;6.55;100.00;96016.38;7398989;19;20377;-91
2024/01/23 00:16:56;;;;;;;4.10;1.90;;;;;;;6.51;100.00;96006.81;7401975;19;20392;-91
2024/01/23 00:19:23;;;;;;;10.83;2.00;;;;;;;7.03;100.00;96088.56;7401192;19;20365;-91
2024/01/23 00:21:52;;;;;;;2.50;1.27;;;;;;;6.14;100.00;95950.16;7400944;19;20387;-91
2024/01/23 00:24:19;;;;;;;6.73;3.10;;;;;;;6.33;100.00;95977.03;7398587;19;20398;-91
2024/01/23 00:26:46;;;;;;;4.80;2.40;;;;;;;6.27;100.00;95975.53;7401798;19;20385;-92
2024/01/23 00:29:15;;;;;;;8.67;1.93;;;;;;;6.30;100.00;95980.19;7402941;19;20645;-91
2024/01/23 00:31:43;;;;;;;6.90;3.00;;;;;;;6.72;100.00;96047.22;7400999;19;20397;-91
2024/01/23 00:34:11;;;;;;;8.33;2.40;;;;;;;6.41;100.00;96010.31;7398907;19;20870;-92
2024/01/23 00:36:38;;;;;;;7.37;2.53;;;;;;;6.51;100.00;96015.41;7401091;19;20388;-91
2024/01/23 00:39:06;;;;;;;8.63;1.97;;;;;;;6.74;100.00;96057.34;7400316;19;20392;-91
2024/01/23 00:41:34;;;;;;;12.43;2.90;;;;;;;6.70;100.00;96046.72;7401172;19;20376;-90
2024/01/23 00:44:02;;;;;;;4.17;2.10;;;;;;;6.51;100.00;96012.78;7399241;19;20425;-91
2024/01/23 00:46:29;;;;;;;8.10;2.20;;;;;;;6.66;100.00;96037.13;7400266;19;20460;-91
2024/01/23 00:48:57;;;;;;;10.10;2.70;;;;;;;6.50;100.00;96020.88;7400238;19;20381;-91
2024/01/23 00:51:24;;;;;;;4.90;2.43;;;;;;;6.77;100.00;96088.91;7400721;19;20362;-91
2024/01/23 00:53:53;;;;;;;3.90;1.50;;;;;;;6.54;100.00;96047.97;7398033;19;20428;-91
2024/01/23 00:56:20;;;;;;;4.80;1.60;;;;;;;6.28;100.00;96016.19;7400276;19;20413;-91
2024/01/23 00:58:48;;;;;;;2.50;1.30;;;;;;;6.07;100.00;95986.94;7399888;19;20376;-91
2024/01/23 01:01:15;;;;;;;4.23;1.50;;;;;;;6.14;100.00;95999.66;7401427;19;20367;-91
2024/01/23 01:03:43;;;;;;;3.47;1.70;;;;;;;6.21;100.00;96026.16;7398654;19;20425;-91
2024/01/23 01:06:10;;;;;;;4.87;1.70;;;;;;;6.33;100.00;96046.63;7396837;19;20884;-90
2024/01/23 01:08:38;;;;;;;4.43;1.50;;;;;;;6.21;100.00;96041.78;7401364;19;20376;-91
2024/01/23 01:11:06;;;;;;;4.47;2.23;;;;;;;5.96;100.00;96012.31;7400110;19;20368;-90
2024/01/23 01:13:34;;;;;;;3.63;1.30;;;;;;;6.31;100.00;96065.13;7397969;19;20413;-90
2024/01/23 01:16:01;;;;;;;6.40;1.60;;;;;;;6.12;100.00;96046.06;7399299;19;20389;-91
2024/01/23 01:18:30;;;;;;;4.50;1.73;;;;;;;6.19;100.00;96068.13;7399226;19;20372;-90
2024/01/23 01:20:58;;;;;;;4.00;1.43;;;;;;;5.94;100.00;96035.25;7399538;19;20387;-91
2024/01/23 01:23:25;;;;;;;2.60;1.50;;;;;;;5.75;100.00;96028.41;7397854;19;20417;-91
2024/01/23 01:25:52;;;;;;;2.57;0.97;;;;;;;5.60;100.00;96029.31;7397419;19;20488;-91
2024/01/23 01:28:20;;;;;;;3.30;1.03;;;;;;;5.35;100.00;96010.25;7399859;19;20365;-91
2024/01/23 01:30:47;;;;;;;1.47;1.00;;;;;;;5.75;100.00;96094.28;7399594;19;20392;-90
2024/01/23 01:33:15;;;;;;;4.77;1.20;;;;;;;5.69;100.00;96100.56;7397783;19;20410;-90
2024/01/23 01:35:43;;;;;;;2.20;1.10;;;;;;;5.85;100.00;96117.66;7398465;19;20373;-90
2024/01/23 01:38:10;;;;;;;1.57;1.10;;;;;;;5.76;100.00;96095.84;7398563;19;20470;-91
2024/01/23 01:40:38;;;;;;;2.30;0.90;;;;;;;5.43;100.00;96042.69;7398974;19;20425;-90
2024/01/23 01:43:05;;;;;;;2.70;1.17;;;;;;;5.38;100.00;96037.53;7397587;19;20924;-90
2024/01/23 01:45:32;;;;;;;2.93;0.97;;;;;;;5.54;100.00;96064.25;7398252;19;20397;-91
2024/01/23 01:48:00;;;;;;;3.47;1.17;;;;;;;5.45;100.00;96050.25;7398490;19;20353;-91
2024/01/23 01:50:28;;;;;;;1.93;0.90;;;;;;;5.36;100.00;96044.84;7398110;19;20388;-91
2024/01/23 01:52:55;;;;;;;5.70;1.40;;;;;;;4.97;100.00;95975.41;7397949;19;20491;-90
2024/01/23 01:55:23;;;;;;;1.23;1.13;;;;;;;5.07;100.00;96008.38;7398232;19;20369;-90
2024/01/23 01:57:51;;;;;;;1.00;0.90;;;;;;;5.63;100.00;96092.03;7398379;19;20373;-91
2024/01/23 02:00:18;;;;;;;4.03;1.33;;;;;;;5.19;100.00;96028.84;7398156;19;20380;-91
2024/01/23 02:02:50;;;;;;;3.00;1.23;;;;;;;5.42;100.00;96080.19;7397306;19;20880;-91
2024/01/23 02:05:17;;;;;;;1.43;0.90;;;;;;;5.40;100.00;96069.28;7398472;19;20555;-91
2024/01/23 02:07:46;;;;;;;2.93;1.00;;;;;;;4.88;100.00;95990.00;7397843;19;20394;-90
2024/01/23 02:10:15;;;;;;;1.80;1.70;;;;;;;5.84;100.00;96131.72;7399422;19;20380;-90
2024/01/23 02:12:42;;;;;;;1.70;1.17;;;;;;;5.12;100.00;96010.91;7396818;19;20675;-91
2024/01/23 02:15:10;;;;;;;3.90;1.37;;;;;;;5.35;100.00;96040.69;7397480;19;20381;-90
2024/01/23 02:17:39;;;;;;;1.47;1.30;;;;;;;5.42;100.00;96056.75;7396254;19;20381;-90
2024/01/23 02:20:06;;;;;;;1.10;1.00;;;;;;;5.32;100.00;96047.22;7397689;19;20392;-91
2024/01/23 02:22:34;;;;;;;2.27;1.60;;;;;;;5.38;100.00;96043.53;7398669;19;20462;-91
2024/01/23 02:25:02;;;;;;;6.20;3.60;;;;;;;5.28;100.00;96025.38;7396797;19;20411;-91
2024/01/23 02:27:33;;;;;;;4.37;1.60;;;;;;;5.72;100.00;96105.25;7395433;19;20361;-90
2024/01/23 02:30:01;;;;;;;3.10;1.40;;;;;;;5.41;100.00;96046.63;7398525;19;20390;-90
2024/01/23 02:32:28;;;;;;;2.60;1.10;;;;;;;5.66;100.00;96086.28;7397018;19;20421;-91
2024/01/23 02:34:56;;;;;;;3.90;1.17;;;;;;;5.77;100.00;96100.00;7396995;19;20392;-91
2024/01/23 02:37:23;;;;;;;3.43;1.83;;;;;;;5.19;100.00;96008.81;7396735;19;20369;-91
2024/01/23 02:39:51;;;;;;;2.97;1.63;;;;;;;6.17;100.00;96158.03;7397387;19;20403;-90
2024/01/23 02:42:19;;;;;;;7.20;1.70;;;;;;;5.73;100.00;96096.41;7396147;19;20922;-91
2024/01/23 02:44:46;;;;;;;2.40;1.40;;;;;;;5.58;100.00;96066.03;7396935;19;20397;-91
2024/01/23 02:47:14;;;;;;;3.57;1.83;;;;;;;5.50;100.00;96051.00;7398299;19;20353;-90
2024/01/23 02:49:41;;;;;;;4.77;1.80;;;;;;;5.21;100.00;96008.53;7396640;19;20361;-91
2024/01/23 02:52:09;;;;;;;6.93;1.80;;;;;;;5.45;100.00;96032.06;7398056;19;20373;-90
2024/01/23 02:54:36;;;;;;;4.40;1.60;;;;;;;5.72;100.00;96073.22;7394618;19;20485;-91
2024/01/23 02:57:04;;;;;;;4.40;2.13;;;;;;;6.11;100.00;96128.66;7396213;19;20388;-90
2024/01/23 02:59:32;;;;;;;4.03;1.57;;;;;;;5.76;100.00;96074.22;7396463;19;20425;-90
2024/01/23 03:02:00;;;;;;;4.57;1.83;;;;;;;5.82;100.00;96073.91;7398109;19;20436;-91
2024/01/23 03:04:27;;;;;;;2.00;1.47;;;;;;;5.59;100.00;96035.59;7394036;19;20484;-91
2024/01/23 03:06:55;;;;;;;5.50;1.70;;;;;;;5.98;100.00;96116.25;7396073;19;20393;-91
2024/01/23 03:09:22;;;;;;;1.63;1.40;;;;;;;6.00;100.00;96111.53;7396219;19;20361;-91
2024/01/23 03:11:49;;;;;;;7.60;3.83;;;;;;;5.60;100.00;96035.31;7395948;19;20389;-90
2024/01/23 03:14:17;;;;;;;4.10;2.07;;;;;;;6.12;100.00;96121.63;7394023;19;20392;-90
2024/01/23 03:16:44;;;;;;;4.40;2.60;;;;;;;5.24;100.00;95987.94;7395651;19;20385;-91
2024/01/23 03:19:12;;;;;;;7.30;2.77;;;;;;;5.34;100.00;96013.91;7396162;19;20372;-91
2024/01/23 03:21:40;;;;;;;5.30;2.13;;;;;;;5.55;100.00;96053.56;7397387;19;20373;-91
2024/01/23 03:24:07;;;;;;;4.37;1.87;;;;;;;5.65;100.00;96044.91;7393310;19;20420;-90
2024/01/23 03:26:34;;;;;;;5.73;1.67;;;;;;;5.72;100.00;96055.00;7397208;19;20435;-91
2024/01/23 03:29:03;;;;;;;1.57;1.47;;;;;;;5.64;100.00;96056.34;7399096;19;20470;-91
2024/01/23 03:31:30;;;;;;;3.80;2.47;;;;;;;5.87;100.00;96086.13;7404784;19;20380;-91
2024/01/23 03:33:59;;;;;;;3.33;1.90;;;;;;;5.81;100.00;96066.38;7402902;19;20393;-91
2024/01/23 03:36:26;;;;;;;6.40;3.30;;;;;;;6.09;100.00;96098.69;7404252;19;20372;-91
2024/01/23 03:38:54;;;;;;;2.70;1.97;;;;;;;5.99;100.00;96094.38;7404158;19;20357;-90
2024/01/23 03:41:22;;;;;;;2.70;1.70;;;;;;;4.92;100.00;95935.66;7402638;19;20388;-90
2024/01/23 03:43:49;;;;;;;5.00;1.60;;;;;;;6.60;100.00;96184.25;7400614;19;20471;-91
2024/01/23 03:46:17;;;;;;;3.73;2.50;;;;;;;6.56;100.00;96178.81;7402020;19;20409;-91
2024/01/23 03:48:44;;;;;;;13.77;2.27;;;;;;;6.36;100.00;96158.91;7404282;19;20365;-90
2024/01/23 03:51:12;;;;;;;7.73;2.50;;;;;;;5.87;100.00;96091.34;7402087;19;20387;-91
2024/01/23 03:53:40;;;;;;;4.93;1.30;;;;;;;6.01;100.00;96097.47;7401039;19;20416;-91
2024/01/23 03:56:07;;;;;;;5.13;2.40;;;;;;;6.02;100.00;96103.47;7402284;19;20739;-91
2024/01/23 03:58:35;;;;;;;2.57;1.80;;;;;;;6.32;100.00;96144.88;7403640;19;20361;-90
2024/01/23 04:01:02;;;;;;;2.37;2.17;;;;;;;6.30;100.00;96151.41;7402287;19;20377;-91
2024/01/23 04:03:30;;;;;;;3.27;1.60;;;;;;;6.58;100.00;96184.53;7400180;19;20445;-91
2024/01/23 04:05:57;;;;;;;7.00;3.47;;;;;;;6.48;100.00;96182.00;7403051;19;20381;-90
2024/01/23 04:08:25;;;;;;;5.27;1.67;;;;;;;6.53;100.00;96219.25;7401892;19;20847;-91
2024/01/23 04:10:52;;;;;;;7.23;2.10;;;;;;;6.31;100.00;96158.19;7403666;19;20394;-91
2024/01/23 04:13:20;;;;;;;7.27;2.20;;;;;;;5.85;100.00;96091.63;7401920;19;20464;-91
2024/01/23 04:15:47;;;;;;;5.03;1.73;;;;;;;6.54;100.00;96212.22;7403530;19;20373;-91
2024/01/23 04:18:16;;;;;;;3.87;1.50;;;;;;;6.11;100.00;96135.69;7401550;19;20384;-90
2024/01/23 04:20:43;;;;;;;7.50;2.20;;;;;;;6.48;100.00;96189.81;7400953;19;20381;-91
2024/01/23 04:23:11;;;;;;;3.47;2.03;;;;;;;6.23;100.00;96167.34;7401867;19;20404;-91
2024/01/23 04:25:38;;;;;;;2.03;1.83;;;;;;;6.21;100.00;96172.06;7399310;19;20506;-91
2024/01/23 04:28:06;;;;;;;3.00;1.60;;;;;;;6.28;100.00;96165.50;7402730;19;20369;-91
2024/01/23 04:30:33;;;;;;;5.00;2.10;;;;;;;6.47;100.00;96206.53;7400690;19;20721;-91
2024/01/23 04:33:01;;;;;;;3.97;1.80;;;;;;;6.25;100.00;96173.09;7399816;19;20404;-91
2024/01/23 04:35:28;;;;;;;4.00;1.23;;;;;;;6.47;100.00;96214.34;7401537;19;20400;-90
2024/01/23 04:37:56;;;;;;;4.17;1.90;;;;;;;6.18;100.00;96181.22;7401116;19;20372;-90
2024/01/23 04:40:23;;;;;;;9.17;2.10;;;;;;;6.67;100.00;96255.91;7402236;19;20353;-91
2024/01/23 04:42:51;;;;;;;5.50;3.00;;;;;;;6.99;100.00;96311.97;7401800;19;20416;-90
2024/01/23 04:45:18;;;;;;;4.23;2.07;;;;;;;6.22;100.00;96178.84;7399961;19;20406;-91
2024/01/23 04:47:46;;;;;;;14.53;3.30;;;;;;;6.06;100.00;96180.78;7400578;19;20399;-91
2024/01/23 04:50:14;;;;;;;4.23;2.40;;;;;;;6.17;100.00;96190.06;7400214;19;20380;-91
2024/01/23 04:52:41;;;;;;;6.53;2.30;;;;;;;6.74;100.00;96282.44;7399582;19;20377;-90
2024/01/23 04:55:08;;;;;;;5.53;2.50;;;;;;;6.31;100.00;96215.53;7398816;19;20381;-91
2024/01/23 04:57:36;;;;;;;5.47;2.90;;;;;;;6.00;100.00;96189.69;7400525;19;20380;-90
2024/01/23 05:00:05;;;;;;;7.73;3.77;;;;;;;5.82;100.00;96156.47;7400298;19;20406;-90
2024/01/23 05:02:32;;;;;;;8.77;3.40;;;;;;;6.16;100.00;96242.47;7399314;19;20404;-90
2024/01/23 05:05:00;;;;;;;8.10;2.93;;;;;;;6.04;100.00;96216.75;7399895;19;20404;-91
2024/01/23 05:07:27;;;;;;;7.33;3.97;;;;;;;6.13;100.00;96228.16;7400033;19;20373;-91
2024/01/23 05:09:55;;;;;;;7.97;3.57;;;;;;;6.34;100.00;96275.69;7400119;19;20424;-91
2024/01/23 05:12:22;;;;;;;5.47;3.53;;;;;;;6.53;100.00;96323.53;7399266;19;20352;-90
2024/01/23 05:14:50;;;;;;;7.30;4.37;;;;;;;5.89;100.00;96232.47;7397804;19;20377;-91
2024/01/23 05:17:18;;;;;;;2.07;1.70;;;;;;;6.51;100.00;96322.25;7401274;19;20329;-91
2024/01/23 05:19:45;;;;;;;9.03;2.90;;;;;;;6.24;100.00;96294.03;7399894;19;20361;-91
2024/01/23 05:22:13;;;;;;;1.70;1.30;;;;;;;6.37;100.00;96313.47;7398847;19;20381;-90
2024/01/23 05:24:41;;;;;;;5.33;1.93;;;;;;;5.77;100.00;96238.00;7398273;19;20409;-90
2024/01/23 05:27:08;;;;;;;2.17;1.90;;;;;;;5.98;100.00;96296.00;7400104;19;20683;-89
2024/01/23 05:29:36;;;;;;;3.90;2.43;;;;;;;5.11;100.00;96147.22;7398891;19;20388;-90
2024/01/23 05:32:03;;;;;;;5.00;2.20;;;;;;;5.98;100.00;96309.00;7398930;19;20413;-91
2024/01/23 05:34:31;;;;;;;5.77;2.00;;;;;;;6.08;100.00;96340.19;7399872;19;20385;-90
2024/01/23 05:36:59;;;;;;;5.93;2.00;;;;;;;5.83;100.00;96312.44;7398992;19;20385;-91
2024/01/23 05:39:28;;;;;;;13.70;2.70;;;;;;;5.37;100.00;96254.56;7398749;19;20403;-90
2024/01/23 05:41:57;;;;;;;4.27;2.00;;;;;;;5.41;100.00;96254.81;7400339;19;20846;-90
2024/01/23 05:44:25;;;;;;;3.60;2.13;;;;;;;5.93;100.00;96341.06;7396388;19;20434;-90
2024/01/23 05:46:52;;;;;;;9.73;2.50;;;;;;;5.86;100.00;96337.97;7398411;19;20385;-91
2024/01/23 05:49:20;;;;;;;5.83;2.00;;;;;;;5.45;100.00;96290.47;7400029;19;20715;-91
2024/01/23 05:51:47;;;;;;;4.23;2.60;;;;;;;5.64;100.00;96333.09;7396656;19;20381;-90
2024/01/23 05:54:15;;;;;;;7.53;1.90;;;;;;;5.49;100.00;96314.91;7396685;19;20906;-89
2024/01/23 05:56:42;;;;;;;8.40;2.53;;;;;;;5.34;100.00;96296.75;7397193;19;20385;-87
2024/01/23 05:59:09;;;;;;;6.17;2.60;;;;;;;5.54;100.00;96335.72;7396007;19;20475;-88
2024/01/23 06:01:37;;;;;;;3.60;2.20;;;;;;;6.12;100.00;96421.25;7395745;19;20364;-88
2024/01/23 06:04:08;;;;;;;6.90;1.90;;;;;;;5.14;100.00;96261.13;7396026;19;20451;-88
2024/01/23 06:06:40;;;;;;;5.03;2.03;;;;;;;5.36;100.00;96310.28;7396825;19;20422;-88
2024/01/23 06:09:10;;;;;;;10.77;2.40;;;;;;;5.43;100.00;96328.97;7396768;19;20390;-88
2024/01/23 06:11:39;;;;;;;5.10;1.90;;;;;;;5.39;100.00;96322.75;7398629;19;20380;-88
2024/01/23 06:14:08;;;;;;;2.83;1.67;;;;;;;5.44;100.00;96312.34;7395753;19;20500;-88
2024/01/23 06:16:37;;;;;;;9.80;3.27;;;;;;;5.67;100.00;96361.19;7397011;19;20499;-88
2024/01/23 06:19:10;;;;;;;5.57;2.63;;;;;;;5.23;100.00;96375.88;7398401;19;20380;-88
2024/01/23 06:21:38;;;;;;;5.37;1.67;;;;;;;5.03;100.00;96380.03;7396663;19;20361;-88
2024/01/23 06:24:06;;;;;;;3.17;1.03;;;;;;;4.87;100.00;96448.66;7394901;19;20424;-88
2024/01/23 06:26:33;;;;;;;4.63;1.10;;;;;;;4.26;100.00;96409.53;7396575;19;20690;-88
2024/01/23 06:29:02;;;;;;;1.97;1.30;;;;;;;3.84;100.00;96376.66;7396406;19;20373;-88
2024/01/23 06:31:30;;;;;;;5.83;1.10;;;;;;;3.75;100.00;96375.59;7395964;19;20373;-89
2024/01/23 06:33:57;;;;;;;1.27;0.90;;;;;;;4.33;100.00;96510.63;7394885;19;20731;-88
2024/01/23 06:36:25;;;;;;;2.80;1.70;;;;;;;3.51;100.00;96418.50;7396041;19;20421;-88
2024/01/23 06:38:52;;;;;;;3.03;1.17;;;;;;;3.66;100.00;96428.22;7395922;19;20369;-88
2024/01/23 06:41:20;;;;;;;5.20;1.13;;;;;;;3.83;100.00;96457.38;7398230;19;20373;-88
2024/01/23 06:46:21;;;;;;;2.83;1.10;;;;;;;3.58;100.00;96471.78;7395890;19;20394;-88
2024/01/23 06:48:49;;;;;;;2.60;1.13;;;;;;;3.39;100.00;96415.31;7396500;19;20386;-89
2024/01/23 06:51:16;;;;;;;1.37;0.90;;;;;;;3.85;100.00;96463.13;7395692;19;20398;-88
2024/01/23 06:53:44;;;;;;;3.53;1.10;;;;;;;3.37;100.00;96405.19;7394719;19;20425;-88
2024/01/23 06:56:11;;;;;;;5.13;2.73;;;;;;;3.93;100.00;96493.78;7393566;19;20880;-87
2024/01/23 06:58:39;;;;;;;2.00;1.40;;;;;;;3.60;100.00;96428.19;7395859;19;20365;-88
2024/01/23 07:01:06;;;;;;;9.40;7.13;;;;;;;3.92;100.00;96448.09;7397221;19;20373;-88
2024/01/23 07:03:34;;;;;;;5.30;4.53;;;;;;;3.94;100.00;96491.97;7398856;19;20922;-88
2024/01/23 07:06:01;;;;;;;7.20;6.50;;;;;;;3.87;100.00;96489.59;7403276;19;20380;-88
2024/01/23 07:08:29;;;;;;;2.50;2.00;;;;;;;4.02;100.00;96504.50;7402760;19;20389;-88
2024/01/23 07:10:57;;;;;;;4.13;2.40;;;;;;;3.66;100.00;96439.38;7403409;19;20389;-88
2024/01/23 07:13:24;;;;;;;3.53;1.40;;;;;;;3.55;100.00;96428.13;7401813;19;20416;-90
2024/01/23 07:15:52;;;;;;;3.00;1.97;;;;;;;3.90;100.00;96497.66;7402348;19;20377;-88
2024/01/23 07:18:19;;;;;;;1.43;1.33;;;;;;;3.26;100.00;96421.72;7402913;19;20444;-88
2024/01/23 07:20:47;;;;;;;2.20;1.77;;;;;;;3.63;100.00;96496.19;7402256;19;20381;-88
2024/01/23 07:23:15;;;;;;;2.93;2.20;;;;;;;3.36;100.00;96462.50;7402689;19;20401;-88
2024/01/23 07:25:43;;;;;;;4.20;2.77;;;;;;;3.86;100.00;96527.75;7400143;19;20428;-88
2024/01/23 07:28:10;;;;;;;3.03;2.83;;;;;;;3.84;100.00;96524.63;7402097;19;20392;-88
2024/01/23 07:30:55;;;;;;;3.23;2.30;;;;;;;3.82;100.00;96563.00;7402532;19;20745;-88
2024/01/23 07:33:23;;;;;;;5.40;2.70;;;;;;;3.97;100.00;96507.06;7400913;19;20416;-88
2024/01/23 07:35:50;;;;;;;4.37;2.87;;;;;;;4.49;100.00;96557.19;7401864;19;20413;-88
2024/01/23 07:38:18;;;;;;;9.47;3.80;;;;;;;4.30;100.00;96509.31;7401667;19;20956;-88
2024/01/23 07:40:46;;;;;;;17.53;5.63;;;;;;;5.08;100.00;96613.38;7402436;19;20378;-88
2024/01/23 07:43:15;;;;;;;6.97;3.13;;;;;;;4.73;100.00;96549.78;7400395;19;20399;-88
2024/01/23 07:45:43;;;;;;;7.00;4.57;;;;;;;4.65;100.00;96547.69;7401382;19;20384;-88
2024/01/23 07:48:10;;;;;;;5.90;2.20;;;;;;;4.94;100.00;96586.25;7401485;19;20369;-88
2024/01/23 07:50:38;;;;;;;12.80;2.57;;;;;;;4.65;100.00;96526.09;7402058;19;20369;-88
2024/01/23 07:53:06;;;;;;;6.37;2.20;;;;;;;4.74;100.00;96532.34;7400749;19;20419;-88
2024/01/23 07:55:33;;;;;;;7.47;2.53;;;;;;;5.04;100.00;96581.09;7399908;19;20377;-88
2024/01/23 07:58:01;;;;;;;6.17;2.03;;;;;;;4.74;100.00;96533.13;7401185;19;20381;-89
2024/01/23 08:00:28;;;;;;;5.43;2.50;;;;;;;4.87;100.00;96551.91;7401049;19;20858;-88
2024/01/23 08:02:56;;;;;;;4.57;1.90;;;;;;;4.53;100.00;96495.13;7401811;19;20383;-88
2024/01/23 08:05:23;;;;;;;6.67;2.20;;;;;;;4.33;100.00;96462.03;7400805;19;20401;-88
2024/01/23 08:07:51;;;;;;;4.47;1.67;;;;;;;4.81;100.00;96535.50;7402612;19;20440;-88
2024/01/23 08:10:21;;;;;;;3.63;1.97;;;;;;;4.89;100.00;96535.00;7401030;19;20391;-88
2024/01/23 08:12:48;;;;;;;5.83;1.47;;;;;;;5.11;100.00;96578.25;7399975;19;20862;-88
2024/01/23 08:15:17;;;;;;;7.30;2.80;;;;;;;5.59;100.00;96650.72;7398765;19;20389;-88
2024/01/23 08:17:45;;;;;;;6.87;2.70;;;;;;;5.21;100.00;96610.28;7401239;19;20397;-88
2024/01/23 08:20:13;;;;;;;4.37;2.00;;;;;;;5.58;100.00;96662.19;7402447;19;20381;-88
2024/01/23 08:22:41;;;;;;;4.77;2.20;;;;;;;5.23;100.00;96605.59;7400234;19;20396;-88
2024/01/23 08:25:08;;;;;;;6.90;2.80;;;;;;;4.83;100.00;96536.03;7399137;19;20867;-87
2024/01/23 08:27:36;;;;;;;2.00;1.80;;;;;;;4.93;100.00;96550.91;7400174;19;20463;-88
2024/01/23 08:30:04;;;;;;;6.30;2.50;;;;;;;5.18;100.00;96586.59;7401917;19;20357;-88
2024/01/23 08:32:32;;;;;;;4.40;2.23;;;;;;;5.58;100.00;96646.56;7400093;19;20461;-88
2024/01/23 08:34:59;;;;;;;6.93;2.37;;;;;;;5.45;100.00;96612.44;7399544;19;20403;-88
2024/01/23 08:37:27;;;;;;;2.70;1.50;;;;;;;4.97;100.00;96536.34;7401702;19;20392;-88
2024/01/23 08:39:54;;;;;;;4.53;2.00;;;;;;;4.91;100.00;96514.75;7400051;19;20377;-88
2024/01/23 08:42:22;;;;;;;4.67;1.27;;;;;;;5.36;100.00;96581.69;7400276;19;20380;-88
2024/01/23 08:44:50;;;;;;;3.10;1.77;;;;;;;4.99;100.00;96523.84;7399847;19;20695;-89
2024/01/23 08:47:19;;;;;;;6.33;1.83;;;;;;;5.13;100.00;96550.16;7400445;19;20373;-88
2024/01/23 08:49:47;;;;;;;3.53;2.20;;;;;;;5.05;100.00;96539.22;7399420;19;20381;-88
2024/01/23 08:52:15;;;;;;;4.27;1.57;;;;;;;5.01;100.00;96519.16;7399255;19;20433;-88
2024/01/23 08:54:42;;;;;;;3.10;2.03;;;;;;;6.24;100.00;96713.63;7399767;19;20621;-90
2024/01/23 08:57:11;;;;;;;9.23;2.87;;;;;;;5.29;100.00;96575.94;7401199;19;20373;-89
2024/01/23 08:59:40;;;;;;;10.40;2.53;;;;;;;5.76;100.00;96636.69;7399847;19;20389;-89
2024/01/23 09:02:07;;;;;;;5.20;4.70;;;;;;;5.57;100.00;96610.34;7399346;19;20440;-89
2024/01/23 09:04:35;;;;;;;7.80;2.93;;;;;;;6.07;100.00;96676.56;7399125;19;20369;-89
2024/01/23 09:07:03;;;;;;;4.90;2.10;;;;;;;5.59;100.00;96603.88;7399163;19;20440;-89
2024/01/23 09:09:30;;;;;;;2.97;2.03;;;;;;;5.78;100.00;96647.63;7401158;19;20360;-88
2024/01/23 09:11:58;;;;;;;5.93;2.17;;;;;;;5.72;100.00;96638.25;7399015;19;20364;-88
2024/01/23 09:14:25;;;;;;;6.50;1.97;;;;;;;6.03;100.00;96715.41;7396661;19;20408;-89
2024/01/23 09:16:53;;;;;;;7.33;3.10;;;;;;;5.68;100.00;96636.16;7396888;19;20377;-88
2024/01/23 09:19:20;;;;;;;5.20;2.10;;;;;;;5.61;100.00;96614.81;7400467;19;20692;-89
2024/01/23 09:21:48;;;;;;;5.43;1.83;;;;;;;5.79;100.00;96652.56;7400182;19;20381;-89
2024/01/23 09:24:16;;;;;;;5.90;1.80;;;;;;;6.28;100.00;96738.09;7396168;19;20408;-88
2024/01/23 09:26:44;;;;;;;6.00;2.17;;;;;;;5.83;100.00;96673.66;7395913;19;20396;-89
2024/01/23 09:29:11;;;;;;;6.03;2.50;;;;;;;5.64;100.00;96635.09;7397776;19;20392;-88
2024/01/23 09:31:46;;;;;;;4.50;1.23;;;;;;;5.88;100.00;96682.28;7399914;19;20372;-88
2024/01/23 09:34:14;;;;;;;10.73;2.97;;;;;;;6.14;100.00;96721.41;7396795;19;20753;-88
2024/01/23 09:36:42;;;;;;;2.93;2.20;;;;;;;6.05;100.00;96717.75;7398380;19;20385;-89
2024/01/23 09:39:13;;;;;;;6.33;2.73;;;;;;;6.11;100.00;96727.16;7397856;19;20386;-89
2024/01/23 09:41:47;;;;;;;5.40;1.83;;;;;;;6.64;100.00;96814.53;7399960;19;20389;-89
2024/01/23 09:44:15;;;;;;;6.80;3.10;;;;;;;5.65;100.00;96667.91;7397896;19;20896;-90
2024/01/23 09:46:43;;;;;;;3.33;1.67;;;;;;;6.25;100.00;96773.28;7397702;19;20678;-88
2024/01/23 09:49:11;;;;;;;9.57;3.40;;;;;;;5.69;100.00;96666.34;7397865;19;20376;-89
2024/01/23 09:51:43;;;;;;;4.33;3.13;;;;;;;6.44;100.00;96783.22;7399249;19;20360;-88
2024/01/23 09:54:12;;;;;;;7.37;3.07;;;;;;;6.27;100.00;96768.59;7395935;19;20420;-88
2024/01/23 09:56:40;;;;;;;6.93;2.33;;;;;;;5.91;100.00;96696.63;7396364;19;20385;-89
2024/01/23 09:59:11;;;;;;;6.20;3.07;;;;;;;6.26;100.00;96733.16;7397239;19;20369;-88
2024/01/23 10:01:39;;;;;;;3.70;2.50;;;;;;;6.67;100.00;96803.59;7398979;19;20368;-88
2024/01/23 10:04:07;;;;;;;6.70;2.67;;;;;;;6.65;100.00;96804.88;7397345;19;20389;-88
2024/01/23 10:06:36;;;;;;;9.33;3.63;;;;;;;6.82;100.00;96800.97;7398979;19;20365;-87
2024/01/23 10:09:04;;;;;;;10.60;2.73;;;;;;;6.58;100.00;96766.00;7397252;19;20821;-88
2024/01/23 10:11:35;;;;;;;4.83;2.10;;;;;;;6.69;100.00;96775.41;7397190;19;20377;-86
2024/01/23 10:14:04;;;;;;;13.17;2.77;;;;;;;6.78;100.00;96797.34;7395545;19;20422;-87
2024/01/23 10:16:32;;;;;;;7.40;3.07;;;;;;;6.83;100.00;96801.75;7395818;19;20377;-88
2024/01/23 10:19:00;;;;;;;6.00;2.47;;;;;;;6.77;100.00;96819.25;7396564;19;20388;-88
2024/01/23 10:21:28;;;;;;;5.23;2.90;;;;;;;6.49;100.00;96762.34;7396885;19;20406;-87
2024/01/23 10:23:56;;;;;;;2.80;2.30;;;;;;;6.45;100.00;96796.00;7397143;19;20465;-89
2024/01/23 10:26:24;;;;;;;8.53;3.77;;;;;;;6.21;100.00;96746.16;7395156;19;20412;-87
2024/01/23 10:28:52;;;;;;;6.47;2.10;;;;;;;6.22;100.00;96755.53;7396541;19;20385;-88
2024/01/23 10:31:19;;;;;;;6.77;2.43;;;;;;;6.39;100.00;96785.81;7396337;19;20381;-88
2024/01/23 10:33:47;;;;;;;9.83;1.93;;;;;;;6.66;100.00;96820.28;7395488;19;20405;-88
2024/01/23 10:36:14;;;;;;;3.50;1.97;;;;;;;6.58;100.00;96776.44;7395584;19;20388;-87
2024/01/23 10:38:43;;;;;;;4.37;2.53;;;;;;;6.53;100.00;96763.41;7395500;19;20485;-88
2024/01/23 10:41:14;;;;;;;7.33;2.93;;;;;;;6.04;100.00;96711.75;7396387;19;20368;-88
2024/01/23 10:43:42;;;;;;;5.90;3.20;;;;;;;6.85;100.00;96808.28;7395347;19;20408;-88
2024/01/23 10:46:10;;;;;;;7.17;2.33;;;;;;;6.87;100.00;96803.56;7396247;19;20449;-88
2024/01/23 10:48:37;;;;;;;7.20;2.70;;;;;;;7.13;100.00;96832.25;7395960;19;20382;-88
2024/01/23 10:51:19;;;;;;;6.87;2.40;;;;;;;7.51;100.00;96871.91;7396284;19;20406;-88
2024/01/23 10:54:01;;;;;;;2.93;1.80;;;;;;;7.47;100.00;96874.28;7394602;19;20404;-89
2024/01/23 10:56:43;;;;;;;6.20;2.50;;;;;;;6.68;100.00;96755.59;7394831;19;20380;-88
2024/01/23 10:59:18;;;;;;;6.00;2.40;;;;;;;6.60;100.00;96735.25;7395700;19;20385;-88
2024/01/23 11:01:51;;;;;;;10.23;2.20;;;;;;;6.79;100.00;96779.84;7395848;19;20771;-88
2024/01/23 11:04:18;;;;;;;8.60;3.30;;;;;;;7.51;100.00;96888.38;7393972;19;20440;-88
2024/01/23 11:07:00;;;;;;;13.93;4.60;;;;;;;6.86;100.00;96782.97;7396311;19;20377;-88
2024/01/23 11:09:44;;;;;;;7.90;3.77;;;;;;;6.75;100.00;96779.56;7395685;19;20372;-88
2024/01/23 11:12:25;;;;;;;11.77;3.10;;;;;;;7.00;100.00;96817.13;7395120;19;20376;-88
2024/01/23 11:15:11;;;;;;;8.63;3.30;;;;;;;6.76;100.00;96788.97;7397345;19;20410;-88
2024/01/23 11:17:39;;;;;;;14.03;4.80;;;;;;;6.86;100.00;96806.44;7393423;19;20372;-88
2024/01/23 11:20:09;;;;;;;11.10;2.27;;;;;;;6.49;100.00;96744.09;7395062;19;20383;-91
2024/01/23 11:22:37;;;;;;;8.47;2.20;;;;;;;6.58;100.00;96792.88;7395344;19;20416;-90
2024/01/23 11:25:05;;;;;;;5.90;2.90;;;;;;;7.01;100.00;96831.75;7393952;19;20380;-90
2024/01/23 11:27:34;;;;;;;10.53;3.10;;;;;;;7.22;100.00;96882.91;7397144;19;20375;-87
2024/01/23 11:30:04;;;;;;;10.97;3.53;;;;;;;6.25;100.00;96749.84;7397047;19;20381;-88
2024/01/23 11:32:32;;;;;;;8.03;2.63;;;;;;;6.06;100.00;96763.59;7394216;19;20464;-88
2024/01/23 11:35:11;;;;;;;5.43;2.47;;;;;;;6.78;100.00;96862.53;7394941;19;20433;-89
2024/01/23 11:37:47;;;;;;;5.97;2.60;;;;;;;6.26;100.00;96790.50;7392564;19;20394;-88
2024/01/23 11:40:29;;;;;;;9.43;2.80;;;;;;;7.08;100.00;96910.59;7394565;19;20393;-88